sensor_id;sensor_type;location;lat;lon;timestamp;P1;durP1;ratioP1;P2;durP2;ratioP2
17228;SDS011;8731;50.364;8.958;2023-01-10T00:00:44;4.17;;;1.90;;
17228;SDS011;8731;50.364;8.958;2023-01-10T00:05:06;3.53;;;1.70;;
17228;SDS011;8731;50.364;8.958;2023-01-10T00:09:29;3.80;;;1.63;;
17228;SDS011;8731;50.364;8.958;2023-01-10T00:13:53;6.20;;;1.77;;
17228;SDS011;8731;50.364;8.958;2023-01-10T00:18:16;2.30;;;1.60;;
17228;SDS011;8731;50.364;8.958;2023-01-10T00:22:39;4.30;;;2.03;;
17228;SDS011;8731;50.364;8.958;2023-01-10T00:27:01;3.60;;;1.70;;
17228;SDS011;8731;50.364;8.958;2023-01-10T00:31:25;3.50;;;1.43;;
17228;SDS011;8731;50.364;8.958;2023-01-10T00:35:47;4.93;;;1.70;;
17228;SDS011;8731;50.364;8.958;2023-01-10T00:40:10;6.13;;;2.40;;
17228;SDS011;8731;50.364;8.958;2023-01-10T00:44:33;4.47;;;1.80;;
17228;SDS011;8731;50.364;8.958;2023-01-10T00:48:57;3.17;;;1.63;;
17228;SDS011;8731;50.364;8.958;2023-01-10T00:53:19;3.73;;;1.80;;
17228;SDS011;8731;50.364;8.958;2023-01-10T00:57:42;3.73;;;1.50;;
17228;SDS011;8731;50.364;8.958;2023-01-10T01:02:04;2.57;;;1.50;;
17228;SDS011;8731;50.364;8.958;2023-01-10T01:06:28;3.67;;;1.40;;
17228;SDS011;8731;50.364;8.958;2023-01-10T01:10:50;4.07;;;1.50;;
17228;SDS011;8731;50.364;8.958;2023-01-10T01:15:12;4.53;;;1.90;;
17228;SDS011;8731;50.364;8.958;2023-01-10T01:19:34;4.07;;;2.07;;
17228;SDS011;8731;50.364;8.958;2023-01-10T01:23:58;2.57;;;1.70;;
17228;SDS011;8731;50.364;8.958;2023-01-10T01:28:21;2.77;;;1.90;;
17228;SDS011;8731;50.364;8.958;2023-01-10T01:32:43;4.80;;;3.80;;
17228;SDS011;8731;50.364;8.958;2023-01-10T01:37:06;5.13;;;3.53;;
17228;SDS011;8731;50.364;8.958;2023-01-10T01:41:29;3.63;;;2.93;;
17228;SDS011;8731;50.364;8.958;2023-01-10T01:46:09;2.73;;;2.00;;
17228;SDS011;8731;50.364;8.958;2023-01-10T01:50:33;3.87;;;2.20;;
17228;SDS011;8731;50.364;8.958;2023-01-10T01:55:01;4.57;;;2.13;;
17228;SDS011;8731;50.364;8.958;2023-01-10T01:59:27;3.73;;;2.20;;
17228;SDS011;8731;50.364;8.958;2023-01-10T02:03:56;5.27;;;2.60;;
17228;SDS011;8731;50.364;8.958;2023-01-10T02:08:27;3.37;;;2.27;;
17228;SDS011;8731;50.364;8.958;2023-01-10T02:12:49;3.03;;;2.07;;
17228;SDS011;8731;50.364;8.958;2023-01-10T02:17:17;3.60;;;2.50;;
17228;SDS011;8731;50.364;8.958;2023-01-10T02:21:59;5.00;;;2.67;;
17228;SDS011;8731;50.364;8.958;2023-01-10T02:31:54;4.30;;;2.23;;
17228;SDS011;8731;50.364;8.958;2023-01-10T02:36:53;3.97;;;2.63;;
17228;SDS011;8731;50.364;8.958;2023-01-10T02:41:28;4.33;;;3.00;;
17228;SDS011;8731;50.364;8.958;2023-01-10T02:46:01;6.33;;;3.00;;
17228;SDS011;8731;50.364;8.958;2023-01-10T02:50:48;6.73;;;3.20;;
17228;SDS011;8731;50.364;8.958;2023-01-10T02:55:16;5.90;;;3.00;;
17228;SDS011;8731;50.364;8.958;2023-01-10T03:04:38;5.73;;;2.77;;
17228;SDS011;8731;50.364;8.958;2023-01-10T03:09:15;8.13;;;2.97;;
17228;SDS011;8731;50.364;8.958;2023-01-10T03:13:47;5.33;;;2.97;;
17228;SDS011;8731;50.364;8.958;2023-01-10T03:18:19;6.80;;;2.80;;
17228;SDS011;8731;50.364;8.958;2023-01-10T03:22:51;5.33;;;3.07;;
17228;SDS011;8731;50.364;8.958;2023-01-10T03:27:20;4.20;;;2.50;;
17228;SDS011;8731;50.364;8.958;2023-01-10T03:31:51;4.17;;;2.47;;
17228;SDS011;8731;50.364;8.958;2023-01-10T03:36:22;4.50;;;2.23;;
17228;SDS011;8731;50.364;8.958;2023-01-10T03:40:53;6.37;;;2.13;;
17228;SDS011;8731;50.364;8.958;2023-01-10T03:45:25;4.40;;;2.43;;
17228;SDS011;8731;50.364;8.958;2023-01-10T03:49:55;5.43;;;2.70;;
17228;SDS011;8731;50.364;8.958;2023-01-10T03:54:21;6.40;;;3.23;;
17228;SDS011;8731;50.364;8.958;2023-01-10T03:58:44;5.90;;;2.83;;
17228;SDS011;8731;50.364;8.958;2023-01-10T04:03:07;12.23;;;2.87;;
17228;SDS011;8731;50.364;8.958;2023-01-10T04:07:30;4.23;;;2.10;;
17228;SDS011;8731;50.364;8.958;2023-01-10T04:11:53;7.90;;;2.90;;
17228;SDS011;8731;50.364;8.958;2023-01-10T04:16:15;4.90;;;2.80;;
17228;SDS011;8731;50.364;8.958;2023-01-10T04:20:39;6.07;;;2.63;;
17228;SDS011;8731;50.364;8.958;2023-01-10T04:25:01;9.23;;;2.80;;
17228;SDS011;8731;50.364;8.958;2023-01-10T04:29:23;6.20;;;2.87;;
17228;SDS011;8731;50.364;8.958;2023-01-10T04:33:46;5.40;;;2.60;;
17228;SDS011;8731;50.364;8.958;2023-01-10T04:38:10;7.60;;;2.27;;
17228;SDS011;8731;50.364;8.958;2023-01-10T04:42:32;5.57;;;2.17;;
17228;SDS011;8731;50.364;8.958;2023-01-10T04:46:54;7.00;;;2.30;;
17228;SDS011;8731;50.364;8.958;2023-01-10T04:51:16;7.77;;;2.43;;
17228;SDS011;8731;50.364;8.958;2023-01-10T04:55:40;5.20;;;1.63;;
17228;SDS011;8731;50.364;8.958;2023-01-10T05:00:03;6.63;;;2.10;;
17228;SDS011;8731;50.364;8.958;2023-01-10T05:04:26;5.37;;;1.90;;
17228;SDS011;8731;50.364;8.958;2023-01-10T05:08:51;8.90;;;2.40;;
17228;SDS011;8731;50.364;8.958;2023-01-10T05:13:15;6.80;;;1.90;;
17228;SDS011;8731;50.364;8.958;2023-01-10T05:17:37;8.43;;;1.97;;
17228;SDS011;8731;50.364;8.958;2023-01-10T05:21:59;5.90;;;2.20;;
17228;SDS011;8731;50.364;8.958;2023-01-10T05:26:22;6.33;;;2.03;;
17228;SDS011;8731;50.364;8.958;2023-01-10T05:30:46;5.03;;;1.60;;
17228;SDS011;8731;50.364;8.958;2023-01-10T05:35:09;4.63;;;1.77;;
17228;SDS011;8731;50.364;8.958;2023-01-10T05:39:31;6.53;;;2.30;;
17228;SDS011;8731;50.364;8.958;2023-01-10T05:43:53;5.60;;;2.93;;
17228;SDS011;8731;50.364;8.958;2023-01-10T05:48:17;19.57;;;9.33;;
17228;SDS011;8731;50.364;8.958;2023-01-10T05:52:40;9.73;;;2.97;;
17228;SDS011;8731;50.364;8.958;2023-01-10T05:57:02;5.83;;;1.93;;
17228;SDS011;8731;50.364;8.958;2023-01-10T06:01:25;6.47;;;2.20;;
17228;SDS011;8731;50.364;8.958;2023-01-10T06:05:48;6.73;;;1.93;;
17228;SDS011;8731;50.364;8.958;2023-01-10T06:10:10;5.20;;;2.47;;
17228;SDS011;8731;50.364;8.958;2023-01-10T06:14:33;5.63;;;2.60;;
17228;SDS011;8731;50.364;8.958;2023-01-10T06:18:55;4.73;;;1.50;;
17228;SDS011;8731;50.364;8.958;2023-01-10T06:23:19;3.47;;;1.70;;
17228;SDS011;8731;50.364;8.958;2023-01-10T06:27:41;5.37;;;2.33;;
17228;SDS011;8731;50.364;8.958;2023-01-10T06:32:04;4.50;;;2.37;;
17228;SDS011;8731;50.364;8.958;2023-01-10T06:36:27;9.97;;;3.27;;
17228;SDS011;8731;50.364;8.958;2023-01-10T06:40:50;6.43;;;2.37;;
17228;SDS011;8731;50.364;8.958;2023-01-10T06:45:13;5.73;;;2.30;;
17228;SDS011;8731;50.364;8.958;2023-01-10T06:49:35;8.90;;;3.70;;
17228;SDS011;8731;50.364;8.958;2023-01-10T06:53:57;7.90;;;2.33;;
17228;SDS011;8731;50.364;8.958;2023-01-10T06:58:21;13.27;;;3.97;;
17228;SDS011;8731;50.364;8.958;2023-01-10T07:02:44;8.97;;;2.50;;
17228;SDS011;8731;50.364;8.958;2023-01-10T07:07:07;5.23;;;2.00;;
17228;SDS011;8731;50.364;8.958;2023-01-10T07:11:29;6.87;;;2.00;;
17228;SDS011;8731;50.364;8.958;2023-01-10T07:15:57;6.80;;;2.83;;
17228;SDS011;8731;50.364;8.958;2023-01-10T07:20:22;9.33;;;2.23;;
17228;SDS011;8731;50.364;8.958;2023-01-10T07:24:45;6.60;;;2.90;;
17228;SDS011;8731;50.364;8.958;2023-01-10T07:29:07;7.63;;;2.70;;
17228;SDS011;8731;50.364;8.958;2023-01-10T07:33:31;7.37;;;2.80;;
17228;SDS011;8731;50.364;8.958;2023-01-10T07:37:54;9.13;;;3.13;;
17228;SDS011;8731;50.364;8.958;2023-01-10T07:42:19;12.63;;;4.53;;
17228;SDS011;8731;50.364;8.958;2023-01-10T07:46:41;11.20;;;3.87;;
17228;SDS011;8731;50.364;8.958;2023-01-10T07:51:05;7.70;;;3.20;;
17228;SDS011;8731;50.364;8.958;2023-01-10T07:55:28;14.93;;;3.90;;
17228;SDS011;8731;50.364;8.958;2023-01-10T07:59:53;9.10;;;3.23;;
17228;SDS011;8731;50.364;8.958;2023-01-10T08:04:15;10.53;;;4.27;;
17228;SDS011;8731;50.364;8.958;2023-01-10T08:08:39;10.77;;;4.57;;
17228;SDS011;8731;50.364;8.958;2023-01-10T08:13:01;13.70;;;4.03;;
17228;SDS011;8731;50.364;8.958;2023-01-10T08:17:24;14.27;;;4.30;;
17228;SDS011;8731;50.364;8.958;2023-01-10T08:21:46;10.90;;;3.90;;
17228;SDS011;8731;50.364;8.958;2023-01-10T08:26:10;8.10;;;3.07;;
17228;SDS011;8731;50.364;8.958;2023-01-10T08:30:33;11.80;;;3.00;;
17228;SDS011;8731;50.364;8.958;2023-01-10T08:34:55;8.67;;;3.33;;
17228;SDS011;8731;50.364;8.958;2023-01-10T08:39:18;9.80;;;3.10;;
17228;SDS011;8731;50.364;8.958;2023-01-10T08:43:42;8.77;;;3.00;;
17228;SDS011;8731;50.364;8.958;2023-01-10T08:48:05;10.07;;;3.00;;
17228;SDS011;8731;50.364;8.958;2023-01-10T08:52:29;8.67;;;2.80;;
17228;SDS011;8731;50.364;8.958;2023-01-10T08:56:52;11.57;;;3.40;;
17228;SDS011;8731;50.364;8.958;2023-01-10T09:01:15;8.90;;;2.90;;
17228;SDS011;8731;50.364;8.958;2023-01-10T09:05:38;9.87;;;2.80;;
17228;SDS011;8731;50.364;8.958;2023-01-10T09:10:01;6.90;;;2.73;;
17228;SDS011;8731;50.364;8.958;2023-01-10T09:14:24;10.63;;;3.50;;
17228;SDS011;8731;50.364;8.958;2023-01-10T09:18:47;11.63;;;3.30;;
17228;SDS011;8731;50.364;8.958;2023-01-10T09:23:11;11.80;;;2.87;;
17228;SDS011;8731;50.364;8.958;2023-01-10T09:27:36;12.33;;;3.20;;
17228;SDS011;8731;50.364;8.958;2023-01-10T09:31:59;11.17;;;4.20;;
17228;SDS011;8731;50.364;8.958;2023-01-10T09:36:22;12.90;;;3.57;;
17228;SDS011;8731;50.364;8.958;2023-01-10T09:40:48;13.67;;;3.40;;
17228;SDS011;8731;50.364;8.958;2023-01-10T09:45:25;11.77;;;3.73;;
17228;SDS011;8731;50.364;8.958;2023-01-10T09:50:00;13.50;;;4.93;;
17228;SDS011;8731;50.364;8.958;2023-01-10T09:54:39;17.37;;;6.53;;
17228;SDS011;8731;50.364;8.958;2023-01-10T09:59:04;10.53;;;3.83;;
17228;SDS011;8731;50.364;8.958;2023-01-10T10:03:33;10.87;;;3.10;;
17228;SDS011;8731;50.364;8.958;2023-01-10T10:08:07;13.37;;;3.17;;
17228;SDS011;8731;50.364;8.958;2023-01-10T10:12:40;12.23;;;3.33;;
17228;SDS011;8731;50.364;8.958;2023-01-10T10:17:17;10.80;;;2.87;;
17228;SDS011;8731;50.364;8.958;2023-01-10T10:21:56;13.47;;;3.87;;
17228;SDS011;8731;50.364;8.958;2023-01-10T10:26:31;20.57;;;7.50;;
17228;SDS011;8731;50.364;8.958;2023-01-10T10:30:59;15.07;;;3.57;;
17228;SDS011;8731;50.364;8.958;2023-01-10T10:35:35;10.57;;;3.20;;
17228;SDS011;8731;50.364;8.958;2023-01-10T10:40:04;12.80;;;4.13;;
17228;SDS011;8731;50.364;8.958;2023-01-10T10:44:37;11.27;;;3.37;;
17228;SDS011;8731;50.364;8.958;2023-01-10T10:49:12;9.50;;;3.00;;
17228;SDS011;8731;50.364;8.958;2023-01-10T11:16:24;13.10;;;4.07;;
17228;SDS011;8731;50.364;8.958;2023-01-10T11:20:51;9.33;;;2.63;;
17228;SDS011;8731;50.364;8.958;2023-01-10T11:25:18;8.93;;;2.97;;
17228;SDS011;8731;50.364;8.958;2023-01-10T11:29:43;12.50;;;3.57;;
17228;SDS011;8731;50.364;8.958;2023-01-10T11:34:18;12.73;;;3.63;;
17228;SDS011;8731;50.364;8.958;2023-01-10T11:38:45;9.07;;;3.00;;
17228;SDS011;8731;50.364;8.958;2023-01-10T11:43:23;12.37;;;3.10;;
17228;SDS011;8731;50.364;8.958;2023-01-10T11:47:51;11.20;;;2.70;;
17228;SDS011;8731;50.364;8.958;2023-01-10T11:52:19;9.20;;;2.53;;
17228;SDS011;8731;50.364;8.958;2023-01-10T11:56:49;10.97;;;3.57;;
17228;SDS011;8731;50.364;8.958;2023-01-10T12:01:28;11.53;;;3.60;;
17228;SDS011;8731;50.364;8.958;2023-01-10T12:06:00;12.20;;;3.67;;
17228;SDS011;8731;50.364;8.958;2023-01-10T12:10:28;10.83;;;3.47;;
17228;SDS011;8731;50.364;8.958;2023-01-10T12:14:50;8.37;;;3.03;;
17228;SDS011;8731;50.364;8.958;2023-01-10T12:19:15;10.17;;;2.67;;
17228;SDS011;8731;50.364;8.958;2023-01-10T12:23:38;11.63;;;3.83;;
17228;SDS011;8731;50.364;8.958;2023-01-10T12:28:08;13.03;;;4.30;;
17228;SDS011;8731;50.364;8.958;2023-01-10T12:32:41;11.90;;;3.30;;
17228;SDS011;8731;50.364;8.958;2023-01-10T12:37:08;10.87;;;2.80;;
17228;SDS011;8731;50.364;8.958;2023-01-10T12:41:46;13.03;;;3.47;;
17228;SDS011;8731;50.364;8.958;2023-01-10T12:46:51;12.30;;;3.97;;
17228;SDS011;8731;50.364;8.958;2023-01-10T12:51:22;8.53;;;2.90;;
17228;SDS011;8731;50.364;8.958;2023-01-10T12:55:50;12.60;;;3.37;;
17228;SDS011;8731;50.364;8.958;2023-01-10T13:00:19;13.83;;;3.13;;
17228;SDS011;8731;50.364;8.958;2023-01-10T13:04:50;13.13;;;3.10;;
17228;SDS011;8731;50.364;8.958;2023-01-10T13:09:19;11.07;;;3.87;;
17228;SDS011;8731;50.364;8.958;2023-01-10T13:13:45;14.67;;;3.73;;
17228;SDS011;8731;50.364;8.958;2023-01-10T13:18:16;13.23;;;4.00;;
17228;SDS011;8731;50.364;8.958;2023-01-10T13:22:47;18.20;;;5.50;;
17228;SDS011;8731;50.364;8.958;2023-01-10T13:27:16;13.53;;;6.63;;
17228;SDS011;8731;50.364;8.958;2023-01-10T13:31:41;13.13;;;3.77;;
17228;SDS011;8731;50.364;8.958;2023-01-10T13:36:06;10.73;;;3.40;;
17228;SDS011;8731;50.364;8.958;2023-01-10T13:40:33;9.23;;;3.13;;
17228;SDS011;8731;50.364;8.958;2023-01-10T13:49:41;9.93;;;2.60;;
17228;SDS011;8731;50.364;8.958;2023-01-10T13:54:23;10.77;;;2.87;;
17228;SDS011;8731;50.364;8.958;2023-01-10T13:58:49;17.63;;;3.30;;
17228;SDS011;8731;50.364;8.958;2023-01-10T14:03:44;13.03;;;3.30;;
17228;SDS011;8731;50.364;8.958;2023-01-10T14:08:14;12.63;;;2.60;;
17228;SDS011;8731;50.364;8.958;2023-01-10T14:12:37;17.23;;;3.27;;
17228;SDS011;8731;50.364;8.958;2023-01-10T14:17:12;13.60;;;3.37;;
17228;SDS011;8731;50.364;8.958;2023-01-10T14:21:42;11.43;;;4.00;;
17228;SDS011;8731;50.364;8.958;2023-01-10T14:26:10;12.73;;;3.90;;
17228;SDS011;8731;50.364;8.958;2023-01-10T14:30:39;15.10;;;6.13;;
17228;SDS011;8731;50.364;8.958;2023-01-10T14:35:04;12.77;;;3.60;;
17228;SDS011;8731;50.364;8.958;2023-01-10T14:39:35;14.13;;;3.93;;
17228;SDS011;8731;50.364;8.958;2023-01-10T14:43:58;12.30;;;3.73;;
17228;SDS011;8731;50.364;8.958;2023-01-10T14:48:29;14.47;;;4.50;;
17228;SDS011;8731;50.364;8.958;2023-01-10T14:52:54;23.00;;;4.83;;
17228;SDS011;8731;50.364;8.958;2023-01-10T14:57:17;24.93;;;11.03;;
17228;SDS011;8731;50.364;8.958;2023-01-10T15:01:42;12.50;;;4.87;;
17228;SDS011;8731;50.364;8.958;2023-01-10T15:06:09;11.07;;;3.50;;
17228;SDS011;8731;50.364;8.958;2023-01-10T15:10:34;13.47;;;3.40;;
17228;SDS011;8731;50.364;8.958;2023-01-10T15:15:03;17.10;;;3.40;;
17228;SDS011;8731;50.364;8.958;2023-01-10T15:19:33;19.27;;;3.27;;
17228;SDS011;8731;50.364;8.958;2023-01-10T15:23:59;10.77;;;3.07;;
17228;SDS011;8731;50.364;8.958;2023-01-10T15:28:43;12.57;;;3.20;;
17228;SDS011;8731;50.364;8.958;2023-01-10T15:33:25;12.63;;;3.27;;
17228;SDS011;8731;50.364;8.958;2023-01-10T15:37:51;12.27;;;2.43;;
17228;SDS011;8731;50.364;8.958;2023-01-10T15:42:18;21.60;;;3.47;;
17228;SDS011;8731;50.364;8.958;2023-01-10T15:46:53;13.13;;;2.43;;
17228;SDS011;8731;50.364;8.958;2023-01-10T15:51:19;12.87;;;3.03;;
17228;SDS011;8731;50.364;8.958;2023-01-10T15:55:47;11.87;;;3.23;;
17228;SDS011;8731;50.364;8.958;2023-01-10T16:00:15;14.67;;;3.17;;
17228;SDS011;8731;50.364;8.958;2023-01-10T16:04:39;15.20;;;3.60;;
17228;SDS011;8731;50.364;8.958;2023-01-10T16:09:06;10.93;;;2.43;;
17228;SDS011;8731;50.364;8.958;2023-01-10T16:13:37;13.20;;;3.00;;
17228;SDS011;8731;50.364;8.958;2023-01-10T16:18:00;16.90;;;3.07;;
17228;SDS011;8731;50.364;8.958;2023-01-10T16:22:24;15.13;;;3.07;;
17228;SDS011;8731;50.364;8.958;2023-01-10T16:26:47;14.77;;;3.63;;
17228;SDS011;8731;50.364;8.958;2023-01-10T16:31:11;12.80;;;3.33;;
17228;SDS011;8731;50.364;8.958;2023-01-10T16:35:34;14.97;;;3.00;;
17228;SDS011;8731;50.364;8.958;2023-01-10T16:39:58;13.73;;;3.00;;
17228;SDS011;8731;50.364;8.958;2023-01-10T16:44:20;19.00;;;3.27;;
17228;SDS011;8731;50.364;8.958;2023-01-10T16:48:42;13.00;;;2.90;;
17228;SDS011;8731;50.364;8.958;2023-01-10T16:53:06;18.17;;;3.57;;
17228;SDS011;8731;50.364;8.958;2023-01-10T16:57:32;14.27;;;3.13;;
17228;SDS011;8731;50.364;8.958;2023-01-10T17:01:56;9.50;;;2.93;;
17228;SDS011;8731;50.364;8.958;2023-01-10T17:06:19;17.03;;;3.47;;
17228;SDS011;8731;50.364;8.958;2023-01-10T17:10:42;15.27;;;2.80;;
17228;SDS011;8731;50.364;8.958;2023-01-10T17:15:10;14.90;;;2.70;;
17228;SDS011;8731;50.364;8.958;2023-01-10T17:19:34;14.57;;;3.20;;
17228;SDS011;8731;50.364;8.958;2023-01-10T17:23:57;13.70;;;2.77;;
17228;SDS011;8731;50.364;8.958;2023-01-10T17:28:20;12.03;;;2.60;;
17228;SDS011;8731;50.364;8.958;2023-01-10T17:32:43;10.77;;;2.77;;
17228;SDS011;8731;50.364;8.958;2023-01-10T17:37:05;14.17;;;3.60;;
17228;SDS011;8731;50.364;8.958;2023-01-10T17:41:28;15.30;;;3.13;;
17228;SDS011;8731;50.364;8.958;2023-01-10T17:45:50;12.43;;;3.00;;
17228;SDS011;8731;50.364;8.958;2023-01-10T17:50:14;13.03;;;2.87;;
17228;SDS011;8731;50.364;8.958;2023-01-10T17:54:36;14.10;;;2.90;;
17228;SDS011;8731;50.364;8.958;2023-01-10T17:58:59;10.60;;;2.83;;
17228;SDS011;8731;50.364;8.958;2023-01-10T18:03:21;9.70;;;2.80;;
17228;SDS011;8731;50.364;8.958;2023-01-10T18:07:45;10.13;;;3.17;;
17228;SDS011;8731;50.364;8.958;2023-01-10T18:12:08;12.33;;;2.33;;
17228;SDS011;8731;50.364;8.958;2023-01-10T18:16:30;14.40;;;2.97;;
17228;SDS011;8731;50.364;8.958;2023-01-10T18:20:55;13.50;;;3.00;;
17228;SDS011;8731;50.364;8.958;2023-01-10T18:25:22;10.47;;;2.73;;
17228;SDS011;8731;50.364;8.958;2023-01-10T18:29:45;12.17;;;2.47;;
17228;SDS011;8731;50.364;8.958;2023-01-10T18:34:08;9.33;;;2.60;;
17228;SDS011;8731;50.364;8.958;2023-01-10T18:38:30;8.20;;;1.90;;
17228;SDS011;8731;50.364;8.958;2023-01-10T18:42:54;9.17;;;2.03;;
17228;SDS011;8731;50.364;8.958;2023-01-10T18:47:18;13.13;;;2.97;;
17228;SDS011;8731;50.364;8.958;2023-01-10T18:51:40;11.93;;;2.70;;
17228;SDS011;8731;50.364;8.958;2023-01-10T18:56:03;9.37;;;2.00;;
17228;SDS011;8731;50.364;8.958;2023-01-10T19:00:28;11.77;;;2.90;;
17228;SDS011;8731;50.364;8.958;2023-01-10T19:04:50;8.77;;;1.90;;
17228;SDS011;8731;50.364;8.958;2023-01-10T19:09:12;11.20;;;2.87;;
17228;SDS011;8731;50.364;8.958;2023-01-10T19:13:34;8.73;;;2.70;;
17228;SDS011;8731;50.364;8.958;2023-01-10T19:17:59;10.40;;;2.50;;
17228;SDS011;8731;50.364;8.958;2023-01-10T19:22:21;7.10;;;2.00;;
17228;SDS011;8731;50.364;8.958;2023-01-10T19:26:43;11.30;;;2.87;;
17228;SDS011;8731;50.364;8.958;2023-01-10T19:31:05;9.70;;;2.83;;
17228;SDS011;8731;50.364;8.958;2023-01-10T19:35:29;13.53;;;3.07;;
17228;SDS011;8731;50.364;8.958;2023-01-10T19:39:55;12.87;;;2.93;;
17228;SDS011;8731;50.364;8.958;2023-01-10T19:44:17;12.63;;;3.37;;
17228;SDS011;8731;50.364;8.958;2023-01-10T19:48:39;9.53;;;2.90;;
17228;SDS011;8731;50.364;8.958;2023-01-10T19:53:03;6.70;;;2.07;;
17228;SDS011;8731;50.364;8.958;2023-01-10T19:57:25;11.63;;;2.63;;
17228;SDS011;8731;50.364;8.958;2023-01-10T20:01:47;11.27;;;3.00;;
17228;SDS011;8731;50.364;8.958;2023-01-10T20:06:12;9.07;;;2.07;;
17228;SDS011;8731;50.364;8.958;2023-01-10T20:10:40;6.73;;;2.00;;
17228;SDS011;8731;50.364;8.958;2023-01-10T20:15:02;6.07;;;2.20;;
17228;SDS011;8731;50.364;8.958;2023-01-10T20:19:25;6.90;;;1.70;;
17228;SDS011;8731;50.364;8.958;2023-01-10T20:23:48;6.03;;;1.67;;
17228;SDS011;8731;50.364;8.958;2023-01-10T20:28:11;7.20;;;1.53;;
17228;SDS011;8731;50.364;8.958;2023-01-10T20:32:34;8.50;;;2.07;;
17228;SDS011;8731;50.364;8.958;2023-01-10T20:36:56;7.80;;;1.53;;
17228;SDS011;8731;50.364;8.958;2023-01-10T20:41:19;10.37;;;2.30;;
17228;SDS011;8731;50.364;8.958;2023-01-10T20:45:46;7.80;;;2.00;;
17228;SDS011;8731;50.364;8.958;2023-01-10T20:50:09;11.60;;;2.80;;
17228;SDS011;8731;50.364;8.958;2023-01-10T20:54:32;6.93;;;1.90;;
17228;SDS011;8731;50.364;8.958;2023-01-10T20:58:56;5.77;;;1.87;;
17228;SDS011;8731;50.364;8.958;2023-01-10T21:03:21;5.93;;;1.80;;
17228;SDS011;8731;50.364;8.958;2023-01-10T21:07:43;10.53;;;2.17;;
17228;SDS011;8731;50.364;8.958;2023-01-10T21:12:05;6.77;;;2.20;;
17228;SDS011;8731;50.364;8.958;2023-01-10T21:16:28;9.33;;;2.00;;
17228;SDS011;8731;50.364;8.958;2023-01-10T21:20:52;8.50;;;2.37;;
17228;SDS011;8731;50.364;8.958;2023-01-10T21:25:16;7.33;;;1.60;;
17228;SDS011;8731;50.364;8.958;2023-01-10T21:29:38;3.93;;;1.57;;
17228;SDS011;8731;50.364;8.958;2023-01-10T21:34:01;7.90;;;1.90;;
17228;SDS011;8731;50.364;8.958;2023-01-10T21:38:25;11.47;;;2.13;;
17228;SDS011;8731;50.364;8.958;2023-01-10T21:42:48;7.17;;;2.10;;
17228;SDS011;8731;50.364;8.958;2023-01-10T21:47:11;7.47;;;2.23;;
17228;SDS011;8731;50.364;8.958;2023-01-10T21:51:33;11.07;;;2.27;;
17228;SDS011;8731;50.364;8.958;2023-01-10T21:55:57;10.23;;;2.17;;
17228;SDS011;8731;50.364;8.958;2023-01-10T22:00:20;6.27;;;1.93;;
17228;SDS011;8731;50.364;8.958;2023-01-10T22:04:45;6.47;;;1.87;;
17228;SDS011;8731;50.364;8.958;2023-01-10T22:09:09;6.73;;;1.63;;
17228;SDS011;8731;50.364;8.958;2023-01-10T22:13:33;8.70;;;1.80;;
17228;SDS011;8731;50.364;8.958;2023-01-10T22:17:55;8.13;;;2.10;;
17228;SDS011;8731;50.364;8.958;2023-01-10T22:22:20;8.80;;;2.07;;
17228;SDS011;8731;50.364;8.958;2023-01-10T22:26:42;7.93;;;2.50;;
17228;SDS011;8731;50.364;8.958;2023-01-10T22:31:06;14.60;;;2.53;;
17228;SDS011;8731;50.364;8.958;2023-01-10T22:35:29;7.73;;;1.97;;
17228;SDS011;8731;50.364;8.958;2023-01-10T22:39:51;8.03;;;1.90;;
17228;SDS011;8731;50.364;8.958;2023-01-10T22:44:15;8.73;;;1.97;;
17228;SDS011;8731;50.364;8.958;2023-01-10T22:48:41;12.43;;;2.77;;
17228;SDS011;8731;50.364;8.958;2023-01-10T22:53:04;9.63;;;2.00;;
17228;SDS011;8731;50.364;8.958;2023-01-10T22:57:26;11.83;;;2.17;;
17228;SDS011;8731;50.364;8.958;2023-01-10T23:01:49;6.17;;;1.83;;
17228;SDS011;8731;50.364;8.958;2023-01-10T23:06:13;9.07;;;2.50;;
17228;SDS011;8731;50.364;8.958;2023-01-10T23:10:37;8.13;;;2.20;;
17228;SDS011;8731;50.364;8.958;2023-01-10T23:14:59;7.63;;;2.10;;
17228;SDS011;8731;50.364;8.958;2023-01-10T23:19:21;9.73;;;1.87;;
17228;SDS011;8731;50.364;8.958;2023-01-10T23:23:45;7.07;;;1.97;;
17228;SDS011;8731;50.364;8.958;2023-01-10T23:28:07;5.43;;;1.57;;
17228;SDS011;8731;50.364;8.958;2023-01-10T23:32:30;8.57;;;2.20;;
17228;SDS011;8731;50.364;8.958;2023-01-10T23:36:52;4.90;;;1.60;;
17228;SDS011;8731;50.364;8.958;2023-01-10T23:41:16;7.30;;;2.17;;
17228;SDS011;8731;50.364;8.958;2023-01-10T23:45:40;8.47;;;2.43;;
17228;SDS011;8731;50.364;8.958;2023-01-10T23:50:04;8.43;;;2.47;;
17228;SDS011;8731;50.364;8.958;2023-01-10T23:54:27;7.30;;;1.90;;
17228;SDS011;8731;50.364;8.958;2023-01-10T23:58:51;7.10;;;2.20;;
